Airfield :







YOU CAN JOIN US ON...

 
LOGIN :

Register | Disclaimer

   EN    FR    IT 

 









Legend :    VFR   Marginal VFR   IFR   Intensive IFR   Very Intensive IFR
Visi :
Ceiling :
>= 8 km
>= 3000ft
5 to 8 km
1000 to 3000 ft
1500m to 5 km
500 to 1000 ft
800 to 1500m
200 to 500 ft
< 800m
< 200 ft
Symbols :   Thunderstorms  Fog  Heavy snow  Heavy precipitations  Wind > 20 kt







- Airport Elevation : 603 ft
- IATA code : LEB


KLEB - Lebanon Municipal

CURRENT METAR :
  • 230553Z AUTO 33003KT 6SM -RA BR FEW003 OVC070 13/11 A3000 RMK AO2 SLP151 P0004 60031 T01280111 10189 20128 56014

EXPIRED METARs :
  • 230453Z AUTO 03006KT 10SM -RA OVC080 13/11 A3001 RMK AO2 SLP156 P0003 T01330106 402440067
  • 230428Z AUTO 01004KT 6SM -RA BR FEW001 OVC070 14/12 A3002 RMK AO2 P0002 T01390117
  • 230353Z AUTO 03003KT 8SM -RA OVC075 14/12 A3003 RMK AO2 SLP162 P0001 T01390117

TAF KLEB
Valid from the 23 at 06:00 until the 24 at 06:00 UTC


230539Z 2306/2406 01004KT P6SM -SHRA OVC080
FM230900 36003KT P6SM -SHRA OVC015
FM231500 VRB03KT P6SM BKN040
FM240000 19008KT P6SM -SHRA OVC025
KZBW FIR / North America



MET'MAP, your aeronautical weather chart ! - Copyright ORBIFLY December 2007 - Disclaimer

ORBIFLY MET'MAP TEAM :

Programming & Development : Alexandra Zaïnal
Concept & Development : Baudouin d'Aumeries
Co-Development & Prog : Marc-Olivier Méhu
Technical & hardware support : Manuel Goepfert

Contact : metmap@orbifly.com




SOURCES & CREDITS :

   NOAA